sensor_id;sensor_type;location;lat;lon;timestamp;temperature;humidity
9223;DHT22;7557;51.698;3.942;2023-07-24T00:02:03;19.60;99.90
9223;DHT22;7557;51.698;3.942;2023-07-24T00:04:31;19.60;99.90
9223;DHT22;7557;51.698;3.942;2023-07-24T00:07:00;19.60;99.90
9223;DHT22;7557;51.698;3.942;2023-07-24T00:09:27;19.60;99.90
9223;DHT22;7557;51.698;3.942;2023-07-24T00:11:54;19.60;99.90
9223;DHT22;7557;51.698;3.942;2023-07-24T00:14:21;19.60;99.90
9223;DHT22;7557;51.698;3.942;2023-07-24T00:16:49;19.60;99.90
9223;DHT22;7557;51.698;3.942;2023-07-24T00:19:16;19.60;99.90
9223;DHT22;7557;51.698;3.942;2023-07-24T00:21:43;19.60;99.90
9223;DHT22;7557;51.698;3.942;2023-07-24T00:24:12;19.60;99.90
9223;DHT22;7557;51.698;3.942;2023-07-24T00:26:39;19.60;99.90
9223;DHT22;7557;51.698;3.942;2023-07-24T00:29:07;19.70;99.90
9223;DHT22;7557;51.698;3.942;2023-07-24T00:31:34;19.60;99.90
9223;DHT22;7557;51.698;3.942;2023-07-24T00:34:01;19.70;99.90
9223;DHT22;7557;51.698;3.942;2023-07-24T00:36:29;19.70;99.90
9223;DHT22;7557;51.698;3.942;2023-07-24T00:38:56;19.70;99.90
9223;DHT22;7557;51.698;3.942;2023-07-24T00:41:24;19.70;99.90
9223;DHT22;7557;51.698;3.942;2023-07-24T00:43:51;19.70;99.90
9223;DHT22;7557;51.698;3.942;2023-07-24T00:49:39;19.80;99.90
9223;DHT22;7557;51.698;3.942;2023-07-24T00:52:07;19.70;99.90
9223;DHT22;7557;51.698;3.942;2023-07-24T00:54:35;19.70;99.90
9223;DHT22;7557;51.698;3.942;2023-07-24T00:57:04;19.70;99.90
9223;DHT22;7557;51.698;3.942;2023-07-24T00:59:33;19.60;99.90
9223;DHT22;7557;51.698;3.942;2023-07-24T01:02:00;19.70;99.90
9223;DHT22;7557;51.698;3.942;2023-07-24T01:04:27;19.70;99.90
9223;DHT22;7557;51.698;3.942;2023-07-24T01:06:55;19.70;99.90
9223;DHT22;7557;51.698;3.942;2023-07-24T01:09:22;19.70;99.90
9223;DHT22;7557;51.698;3.942;2023-07-24T01:11:52;19.80;99.90
9223;DHT22;7557;51.698;3.942;2023-07-24T01:14:29;19.80;99.90
9223;DHT22;7557;51.698;3.942;2023-07-24T01:17:00;19.80;99.90
9223;DHT22;7557;51.698;3.942;2023-07-24T01:19:36;19.80;99.90
9223;DHT22;7557;51.698;3.942;2023-07-24T01:22:12;19.80;99.90
9223;DHT22;7557;51.698;3.942;2023-07-24T01:24:52;19.80;99.90
9223;DHT22;7557;51.698;3.942;2023-07-24T01:27:26;19.80;99.90
9223;DHT22;7557;51.698;3.942;2023-07-24T01:29:54;19.70;99.90
9223;DHT22;7557;51.698;3.942;2023-07-24T01:32:21;19.70;99.90
9223;DHT22;7557;51.698;3.942;2023-07-24T01:34:49;19.60;99.90
9223;DHT22;7557;51.698;3.942;2023-07-24T01:37:16;19.60;99.90
9223;DHT22;7557;51.698;3.942;2023-07-24T01:39:45;19.60;99.90
9223;DHT22;7557;51.698;3.942;2023-07-24T01:42:13;19.70;99.90
9223;DHT22;7557;51.698;3.942;2023-07-24T01:44:42;19.70;99.90
9223;DHT22;7557;51.698;3.942;2023-07-24T01:47:09;19.70;99.90
9223;DHT22;7557;51.698;3.942;2023-07-24T01:49:37;19.70;99.90
9223;DHT22;7557;51.698;3.942;2023-07-24T01:52:09;19.60;99.90
9223;DHT22;7557;51.698;3.942;2023-07-24T01:54:37;19.60;99.90
9223;DHT22;7557;51.698;3.942;2023-07-24T01:57:04;19.60;99.90
9223;DHT22;7557;51.698;3.942;2023-07-24T01:59:32;19.60;99.90
9223;DHT22;7557;51.698;3.942;2023-07-24T02:02:00;19.60;99.90
9223;DHT22;7557;51.698;3.942;2023-07-24T02:04:28;19.60;99.90
9223;DHT22;7557;51.698;3.942;2023-07-24T02:06:55;19.60;99.90
9223;DHT22;7557;51.698;3.942;2023-07-24T02:09:22;19.70;99.90
9223;DHT22;7557;51.698;3.942;2023-07-24T02:11:49;19.70;99.90
9223;DHT22;7557;51.698;3.942;2023-07-24T02:14:18;19.70;99.90
9223;DHT22;7557;51.698;3.942;2023-07-24T02:16:46;19.70;99.90
9223;DHT22;7557;51.698;3.942;2023-07-24T02:19:15;19.70;99.90
9223;DHT22;7557;51.698;3.942;2023-07-24T02:21:42;19.60;99.90
9223;DHT22;7557;51.698;3.942;2023-07-24T02:24:09;19.60;99.90
9223;DHT22;7557;51.698;3.942;2023-07-24T02:26:36;19.60;99.90
9223;DHT22;7557;51.698;3.942;2023-07-24T02:29:04;19.60;99.90
9223;DHT22;7557;51.698;3.942;2023-07-24T02:31:31;19.60;99.90
9223;DHT22;7557;51.698;3.942;2023-07-24T02:33:58;19.60;99.90
9223;DHT22;7557;51.698;3.942;2023-07-24T02:36:27;19.70;99.90
9223;DHT22;7557;51.698;3.942;2023-07-24T02:38:54;19.70;99.90
9223;DHT22;7557;51.698;3.942;2023-07-24T02:41:21;19.60;99.90
9223;DHT22;7557;51.698;3.942;2023-07-24T02:43:48;19.60;99.90
9223;DHT22;7557;51.698;3.942;2023-07-24T02:46:15;19.60;99.90
9223;DHT22;7557;51.698;3.942;2023-07-24T02:48:43;19.60;99.90
9223;DHT22;7557;51.698;3.942;2023-07-24T02:51:10;19.60;99.90
9223;DHT22;7557;51.698;3.942;2023-07-24T02:53:38;19.60;99.90
9223;DHT22;7557;51.698;3.942;2023-07-24T02:56:06;19.60;99.90
9223;DHT22;7557;51.698;3.942;2023-07-24T02:58:33;19.60;99.90
9223;DHT22;7557;51.698;3.942;2023-07-24T03:01:03;19.60;99.90
9223;DHT22;7557;51.698;3.942;2023-07-24T03:03:32;19.60;99.90
9223;DHT22;7557;51.698;3.942;2023-07-24T03:05:59;19.60;99.90
9223;DHT22;7557;51.698;3.942;2023-07-24T03:08:26;19.60;99.90
9223;DHT22;7557;51.698;3.942;2023-07-24T03:10:55;19.60;99.90
9223;DHT22;7557;51.698;3.942;2023-07-24T03:13:22;19.60;99.90
9223;DHT22;7557;51.698;3.942;2023-07-24T03:15:53;19.60;99.90
9223;DHT22;7557;51.698;3.942;2023-07-24T03:18:21;19.60;99.90
9223;DHT22;7557;51.698;3.942;2023-07-24T03:20:48;19.60;99.90
9223;DHT22;7557;51.698;3.942;2023-07-24T03:23:15;19.50;99.90
9223;DHT22;7557;51.698;3.942;2023-07-24T03:25:43;19.60;99.90
9223;DHT22;7557;51.698;3.942;2023-07-24T03:28:11;19.60;99.90
9223;DHT22;7557;51.698;3.942;2023-07-24T03:30:38;19.50;99.90
9223;DHT22;7557;51.698;3.942;2023-07-24T03:33:06;19.50;99.90
9223;DHT22;7557;51.698;3.942;2023-07-24T03:35:33;19.50;99.90
9223;DHT22;7557;51.698;3.942;2023-07-24T03:38:01;19.50;99.90
9223;DHT22;7557;51.698;3.942;2023-07-24T03:40:29;19.50;99.90
9223;DHT22;7557;51.698;3.942;2023-07-24T03:42:56;19.50;99.90
9223;DHT22;7557;51.698;3.942;2023-07-24T03:45:25;19.50;99.90
9223;DHT22;7557;51.698;3.942;2023-07-24T03:47:53;19.50;99.90
9223;DHT22;7557;51.698;3.942;2023-07-24T03:50:20;19.50;99.90
9223;DHT22;7557;51.698;3.942;2023-07-24T03:52:47;19.50;99.90
9223;DHT22;7557;51.698;3.942;2023-07-24T03:55:15;19.50;99.90
9223;DHT22;7557;51.698;3.942;2023-07-24T03:57:43;19.50;99.90
9223;DHT22;7557;51.698;3.942;2023-07-24T04:00:11;19.50;99.90
9223;DHT22;7557;51.698;3.942;2023-07-24T04:02:41;19.40;99.90
9223;DHT22;7557;51.698;3.942;2023-07-24T04:05:08;19.40;99.90
9223;DHT22;7557;51.698;3.942;2023-07-24T04:07:36;19.50;99.90
9223;DHT22;7557;51.698;3.942;2023-07-24T04:10:05;19.40;99.90
9223;DHT22;7557;51.698;3.942;2023-07-24T04:12:32;19.30;99.90
9223;DHT22;7557;51.698;3.942;2023-07-24T04:14:59;19.30;99.90
9223;DHT22;7557;51.698;3.942;2023-07-24T04:17:26;19.30;99.90
9223;DHT22;7557;51.698;3.942;2023-07-24T04:19:56;19.40;99.90
9223;DHT22;7557;51.698;3.942;2023-07-24T04:22:23;19.40;99.90
9223;DHT22;7557;51.698;3.942;2023-07-24T04:24:50;19.30;99.90
9223;DHT22;7557;51.698;3.942;2023-07-24T04:27:18;19.40;99.90
9223;DHT22;7557;51.698;3.942;2023-07-24T04:29:45;19.30;99.90
9223;DHT22;7557;51.698;3.942;2023-07-24T04:32:13;19.40;99.90
9223;DHT22;7557;51.698;3.942;2023-07-24T04:34:43;19.40;99.90
9223;DHT22;7557;51.698;3.942;2023-07-24T04:37:12;19.40;99.90
9223;DHT22;7557;51.698;3.942;2023-07-24T04:39:40;19.40;99.90
9223;DHT22;7557;51.698;3.942;2023-07-24T04:42:07;19.40;99.90
9223;DHT22;7557;51.698;3.942;2023-07-24T04:44:34;19.50;99.90
9223;DHT22;7557;51.698;3.942;2023-07-24T04:47:02;19.50;99.90
9223;DHT22;7557;51.698;3.942;2023-07-24T04:49:29;19.40;99.90
9223;DHT22;7557;51.698;3.942;2023-07-24T04:52:01;19.40;99.90
9223;DHT22;7557;51.698;3.942;2023-07-24T04:54:30;19.40;99.90
9223;DHT22;7557;51.698;3.942;2023-07-24T04:56:58;19.40;99.90
9223;DHT22;7557;51.698;3.942;2023-07-24T04:59:25;19.40;99.90
9223;DHT22;7557;51.698;3.942;2023-07-24T05:01:52;19.40;99.90
9223;DHT22;7557;51.698;3.942;2023-07-24T05:04:20;19.40;99.90
9223;DHT22;7557;51.698;3.942;2023-07-24T05:06:47;19.40;99.90
9223;DHT22;7557;51.698;3.942;2023-07-24T05:09:14;19.40;99.90
9223;DHT22;7557;51.698;3.942;2023-07-24T05:11:43;19.40;99.90
9223;DHT22;7557;51.698;3.942;2023-07-24T05:14:11;19.50;99.90
9223;DHT22;7557;51.698;3.942;2023-07-24T05:16:38;19.50;99.90
9223;DHT22;7557;51.698;3.942;2023-07-24T05:19:05;19.50;99.90
9223;DHT22;7557;51.698;3.942;2023-07-24T05:21:33;19.60;99.90
9223;DHT22;7557;51.698;3.942;2023-07-24T05:24:00;19.60;99.90
9223;DHT22;7557;51.698;3.942;2023-07-24T05:26:27;19.70;99.90
9223;DHT22;7557;51.698;3.942;2023-07-24T05:28:58;19.70;99.90
9223;DHT22;7557;51.698;3.942;2023-07-24T05:31:25;19.70;99.90
9223;DHT22;7557;51.698;3.942;2023-07-24T05:33:53;19.70;99.90
9223;DHT22;7557;51.698;3.942;2023-07-24T05:36:21;19.70;99.90
9223;DHT22;7557;51.698;3.942;2023-07-24T05:38:48;19.70;99.90
9223;DHT22;7557;51.698;3.942;2023-07-24T05:41:15;19.70;99.90
9223;DHT22;7557;51.698;3.942;2023-07-24T05:43:43;19.70;99.90
9223;DHT22;7557;51.698;3.942;2023-07-24T05:46:12;19.80;99.90
9223;DHT22;7557;51.698;3.942;2023-07-24T05:48:39;19.80;99.90
9223;DHT22;7557;51.698;3.942;2023-07-24T05:51:07;19.80;99.90
9223;DHT22;7557;51.698;3.942;2023-07-24T05:53:34;19.80;99.90
9223;DHT22;7557;51.698;3.942;2023-07-24T05:56:03;19.90;99.90
9223;DHT22;7557;51.698;3.942;2023-07-24T05:58:30;19.90;99.90
9223;DHT22;7557;51.698;3.942;2023-07-24T06:00:58;19.90;99.90
9223;DHT22;7557;51.698;3.942;2023-07-24T06:03:27;19.90;99.90
9223;DHT22;7557;51.698;3.942;2023-07-24T06:05:54;19.90;99.90
9223;DHT22;7557;51.698;3.942;2023-07-24T06:08:22;20.00;99.90
9223;DHT22;7557;51.698;3.942;2023-07-24T06:10:50;20.00;99.90
9223;DHT22;7557;51.698;3.942;2023-07-24T06:13:18;20.00;99.90
9223;DHT22;7557;51.698;3.942;2023-07-24T06:15:47;20.00;99.90
9223;DHT22;7557;51.698;3.942;2023-07-24T06:18:15;19.90;99.90
9223;DHT22;7557;51.698;3.942;2023-07-24T06:20:44;20.00;99.90
9223;DHT22;7557;51.698;3.942;2023-07-24T06:23:11;20.00;99.90
9223;DHT22;7557;51.698;3.942;2023-07-24T06:25:40;20.00;99.90
9223;DHT22;7557;51.698;3.942;2023-07-24T06:28:10;20.00;99.90
9223;DHT22;7557;51.698;3.942;2023-07-24T06:30:38;19.90;99.90
9223;DHT22;7557;51.698;3.942;2023-07-24T06:33:06;19.90;99.90
9223;DHT22;7557;51.698;3.942;2023-07-24T06:35:33;19.90;99.90
9223;DHT22;7557;51.698;3.942;2023-07-24T06:38:02;20.00;99.90
9223;DHT22;7557;51.698;3.942;2023-07-24T06:40:29;20.00;99.90
9223;DHT22;7557;51.698;3.942;2023-07-24T06:42:57;20.00;99.90
9223;DHT22;7557;51.698;3.942;2023-07-24T06:45:24;20.00;99.90
9223;DHT22;7557;51.698;3.942;2023-07-24T06:47:52;20.00;99.90
9223;DHT22;7557;51.698;3.942;2023-07-24T06:50:19;20.00;99.90
9223;DHT22;7557;51.698;3.942;2023-07-24T06:52:47;20.00;99.90
9223;DHT22;7557;51.698;3.942;2023-07-24T06:55:18;20.00;99.90
9223;DHT22;7557;51.698;3.942;2023-07-24T06:57:45;20.10;99.90
9223;DHT22;7557;51.698;3.942;2023-07-24T07:00:14;20.10;99.90
9223;DHT22;7557;51.698;3.942;2023-07-24T07:02:41;20.20;99.90
9223;DHT22;7557;51.698;3.942;2023-07-24T07:05:11;20.20;99.90
9223;DHT22;7557;51.698;3.942;2023-07-24T07:07:39;20.30;99.90
9223;DHT22;7557;51.698;3.942;2023-07-24T07:10:07;20.40;99.90
9223;DHT22;7557;51.698;3.942;2023-07-24T07:12:36;20.40;99.90
9223;DHT22;7557;51.698;3.942;2023-07-24T07:15:04;20.40;99.90
9223;DHT22;7557;51.698;3.942;2023-07-24T07:17:31;20.50;99.90
9223;DHT22;7557;51.698;3.942;2023-07-24T07:19:59;20.50;99.90
9223;DHT22;7557;51.698;3.942;2023-07-24T07:22:26;20.50;99.90
9223;DHT22;7557;51.698;3.942;2023-07-24T07:24:54;20.50;99.90
9223;DHT22;7557;51.698;3.942;2023-07-24T07:27:21;20.50;99.90
9223;DHT22;7557;51.698;3.942;2023-07-24T07:29:50;20.60;99.90
9223;DHT22;7557;51.698;3.942;2023-07-24T07:32:17;20.60;99.90
9223;DHT22;7557;51.698;3.942;2023-07-24T07:34:45;20.70;99.90
9223;DHT22;7557;51.698;3.942;2023-07-24T07:37:12;20.60;99.90
9223;DHT22;7557;51.698;3.942;2023-07-24T07:39:40;20.60;99.90
9223;DHT22;7557;51.698;3.942;2023-07-24T07:42:07;20.60;99.90
9223;DHT22;7557;51.698;3.942;2023-07-24T07:44:34;20.60;99.90
9223;DHT22;7557;51.698;3.942;2023-07-24T07:47:03;20.50;99.90
9223;DHT22;7557;51.698;3.942;2023-07-24T07:49:31;20.50;99.90
9223;DHT22;7557;51.698;3.942;2023-07-24T07:51:59;20.50;99.90
9223;DHT22;7557;51.698;3.942;2023-07-24T07:54:26;20.50;99.90
9223;DHT22;7557;51.698;3.942;2023-07-24T07:56:56;20.60;99.90
9223;DHT22;7557;51.698;3.942;2023-07-24T07:59:24;20.70;99.90
9223;DHT22;7557;51.698;3.942;2023-07-24T08:01:51;20.90;99.90
9223;DHT22;7557;51.698;3.942;2023-07-24T08:04:20;20.90;99.90
9223;DHT22;7557;51.698;3.942;2023-07-24T08:06:47;21.00;99.90
9223;DHT22;7557;51.698;3.942;2023-07-24T08:09:15;21.10;99.90
9223;DHT22;7557;51.698;3.942;2023-07-24T08:11:43;21.10;99.90
9223;DHT22;7557;51.698;3.942;2023-07-24T08:14:11;21.10;99.90
9223;DHT22;7557;51.698;3.942;2023-07-24T08:16:38;21.20;99.90
9223;DHT22;7557;51.698;3.942;2023-07-24T08:19:06;21.40;99.90
9223;DHT22;7557;51.698;3.942;2023-07-24T08:21:34;21.40;99.90
9223;DHT22;7557;51.698;3.942;2023-07-24T08:24:03;21.50;99.90
9223;DHT22;7557;51.698;3.942;2023-07-24T08:26:31;21.60;99.90
9223;DHT22;7557;51.698;3.942;2023-07-24T08:28:59;21.70;99.90
9223;DHT22;7557;51.698;3.942;2023-07-24T08:31:26;21.80;99.90
9223;DHT22;7557;51.698;3.942;2023-07-24T08:33:54;22.00;99.90
9223;DHT22;7557;51.698;3.942;2023-07-24T08:36:21;22.10;99.90
9223;DHT22;7557;51.698;3.942;2023-07-24T08:38:50;22.10;99.90
9223;DHT22;7557;51.698;3.942;2023-07-24T08:41:17;22.10;99.90
9223;DHT22;7557;51.698;3.942;2023-07-24T08:43:44;22.10;99.90
9223;DHT22;7557;51.698;3.942;2023-07-24T08:46:11;22.00;99.90
9223;DHT22;7557;51.698;3.942;2023-07-24T08:48:41;22.00;99.90
9223;DHT22;7557;51.698;3.942;2023-07-24T08:51:11;22.00;99.90
9223;DHT22;7557;51.698;3.942;2023-07-24T08:53:39;21.90;99.90
9223;DHT22;7557;51.698;3.942;2023-07-24T08:56:10;21.80;99.90
9223;DHT22;7557;51.698;3.942;2023-07-24T08:58:38;21.80;99.90
9223;DHT22;7557;51.698;3.942;2023-07-24T09:01:06;21.80;99.90
9223;DHT22;7557;51.698;3.942;2023-07-24T09:03:35;21.90;99.90
9223;DHT22;7557;51.698;3.942;2023-07-24T09:06:03;21.90;99.90
9223;DHT22;7557;51.698;3.942;2023-07-24T09:08:33;22.00;99.90
9223;DHT22;7557;51.698;3.942;2023-07-24T09:11:02;22.10;99.90
9223;DHT22;7557;51.698;3.942;2023-07-24T09:13:32;22.20;99.90
9223;DHT22;7557;51.698;3.942;2023-07-24T09:16:00;22.40;99.90
9223;DHT22;7557;51.698;3.942;2023-07-24T09:18:39;22.40;99.90
9223;DHT22;7557;51.698;3.942;2023-07-24T09:21:07;22.30;99.90
9223;DHT22;7557;51.698;3.942;2023-07-24T09:23:35;22.20;99.90
9223;DHT22;7557;51.698;3.942;2023-07-24T09:26:05;22.10;99.90
9223;DHT22;7557;51.698;3.942;2023-07-24T09:28:35;22.20;99.90
9223;DHT22;7557;51.698;3.942;2023-07-24T09:31:05;22.40;99.90
9223;DHT22;7557;51.698;3.942;2023-07-24T09:33:37;22.40;99.90
9223;DHT22;7557;51.698;3.942;2023-07-24T09:36:05;22.30;99.90
9223;DHT22;7557;51.698;3.942;2023-07-24T09:38:34;22.30;99.90
9223;DHT22;7557;51.698;3.942;2023-07-24T09:41:02;22.30;99.90
9223;DHT22;7557;51.698;3.942;2023-07-24T09:43:30;22.20;99.90
9223;DHT22;7557;51.698;3.942;2023-07-24T09:45:59;22.10;99.90
9223;DHT22;7557;51.698;3.942;2023-07-24T09:48:27;22.00;99.90
9223;DHT22;7557;51.698;3.942;2023-07-24T09:50:56;22.00;99.90
9223;DHT22;7557;51.698;3.942;2023-07-24T09:53:31;22.00;99.90
9223;DHT22;7557;51.698;3.942;2023-07-24T09:56:01;22.00;99.90
9223;DHT22;7557;51.698;3.942;2023-07-24T09:58:29;22.10;99.90
9223;DHT22;7557;51.698;3.942;2023-07-24T10:01:00;22.20;99.90
9223;DHT22;7557;51.698;3.942;2023-07-24T10:03:29;22.40;99.90
9223;DHT22;7557;51.698;3.942;2023-07-24T10:05:57;22.40;99.90
9223;DHT22;7557;51.698;3.942;2023-07-24T10:08:24;22.40;99.90
9223;DHT22;7557;51.698;3.942;2023-07-24T10:10:52;22.50;99.90
9223;DHT22;7557;51.698;3.942;2023-07-24T10:13:21;22.70;99.90
9223;DHT22;7557;51.698;3.942;2023-07-24T10:15:49;22.90;99.90
9223;DHT22;7557;51.698;3.942;2023-07-24T10:18:24;23.00;99.90
9223;DHT22;7557;51.698;3.942;2023-07-24T10:21:00;23.00;99.90
9223;DHT22;7557;51.698;3.942;2023-07-24T10:23:28;22.90;99.90
9223;DHT22;7557;51.698;3.942;2023-07-24T10:25:55;22.90;99.90
9223;DHT22;7557;51.698;3.942;2023-07-24T10:28:31;22.70;99.90
9223;DHT22;7557;51.698;3.942;2023-07-24T10:30:58;22.60;99.90
9223;DHT22;7557;51.698;3.942;2023-07-24T10:33:30;22.60;99.90
9223;DHT22;7557;51.698;3.942;2023-07-24T10:36:04;22.60;99.90
9223;DHT22;7557;51.698;3.942;2023-07-24T10:38:35;22.60;99.90
9223;DHT22;7557;51.698;3.942;2023-07-24T10:41:04;22.70;99.90
9223;DHT22;7557;51.698;3.942;2023-07-24T10:43:43;22.80;99.90
9223;DHT22;7557;51.698;3.942;2023-07-24T10:46:11;22.80;99.90
9223;DHT22;7557;51.698;3.942;2023-07-24T10:48:42;22.70;99.90
9223;DHT22;7557;51.698;3.942;2023-07-24T10:51:11;22.70;99.90
9223;DHT22;7557;51.698;3.942;2023-07-24T10:53:42;22.60;99.90
9223;DHT22;7557;51.698;3.942;2023-07-24T10:56:09;22.60;99.90
9223;DHT22;7557;51.698;3.942;2023-07-24T10:58:37;22.60;99.90
9223;DHT22;7557;51.698;3.942;2023-07-24T11:01:04;22.70;99.90
9223;DHT22;7557;51.698;3.942;2023-07-24T11:03:34;22.70;99.90
9223;DHT22;7557;51.698;3.942;2023-07-24T11:06:04;22.60;99.90
9223;DHT22;7557;51.698;3.942;2023-07-24T11:08:31;22.70;99.90
9223;DHT22;7557;51.698;3.942;2023-07-24T11:11:01;22.70;99.90
9223;DHT22;7557;51.698;3.942;2023-07-24T11:13:30;22.50;99.90
9223;DHT22;7557;51.698;3.942;2023-07-24T11:16:04;22.40;99.90
9223;DHT22;7557;51.698;3.942;2023-07-24T11:18:31;22.50;99.90
9223;DHT22;7557;51.698;3.942;2023-07-24T11:20:59;22.60;99.90
9223;DHT22;7557;51.698;3.942;2023-07-24T11:23:29;22.60;99.90
9223;DHT22;7557;51.698;3.942;2023-07-24T11:25:56;22.60;99.90
9223;DHT22;7557;51.698;3.942;2023-07-24T11:28:24;22.60;99.90
9223;DHT22;7557;51.698;3.942;2023-07-24T11:30:51;22.60;99.90
9223;DHT22;7557;51.698;3.942;2023-07-24T11:33:19;22.70;99.90
9223;DHT22;7557;51.698;3.942;2023-07-24T11:35:47;22.80;99.90
9223;DHT22;7557;51.698;3.942;2023-07-24T11:38:16;22.90;99.90
9223;DHT22;7557;51.698;3.942;2023-07-24T11:40:45;23.00;99.90
9223;DHT22;7557;51.698;3.942;2023-07-24T11:43:17;23.00;99.90
9223;DHT22;7557;51.698;3.942;2023-07-24T11:45:46;23.00;99.90
9223;DHT22;7557;51.698;3.942;2023-07-24T11:48:14;23.10;99.90
9223;DHT22;7557;51.698;3.942;2023-07-24T11:50:44;23.30;99.90
9223;DHT22;7557;51.698;3.942;2023-07-24T11:53:22;23.50;99.90
9223;DHT22;7557;51.698;3.942;2023-07-24T11:55:53;23.70;99.90
9223;DHT22;7557;51.698;3.942;2023-07-24T11:58:21;23.90;99.90
9223;DHT22;7557;51.698;3.942;2023-07-24T12:00:49;24.10;99.90
9223;DHT22;7557;51.698;3.942;2023-07-24T12:03:19;24.00;99.90
9223;DHT22;7557;51.698;3.942;2023-07-24T12:05:46;23.80;99.90
9223;DHT22;7557;51.698;3.942;2023-07-24T12:08:14;23.50;99.90
9223;DHT22;7557;51.698;3.942;2023-07-24T12:10:43;23.10;99.90
9223;DHT22;7557;51.698;3.942;2023-07-24T12:13:12;23.00;99.90
9223;DHT22;7557;51.698;3.942;2023-07-24T12:15:40;22.90;99.90
9223;DHT22;7557;51.698;3.942;2023-07-24T12:18:07;22.70;99.90
9223;DHT22;7557;51.698;3.942;2023-07-24T12:20:35;22.60;99.90
9223;DHT22;7557;51.698;3.942;2023-07-24T12:23:03;22.50;99.90
9223;DHT22;7557;51.698;3.942;2023-07-24T12:25:30;22.60;99.90
9223;DHT22;7557;51.698;3.942;2023-07-24T12:27:58;22.60;99.90
9223;DHT22;7557;51.698;3.942;2023-07-24T12:30:27;22.70;99.90
9223;DHT22;7557;51.698;3.942;2023-07-24T12:32:54;22.70;99.90
9223;DHT22;7557;51.698;3.942;2023-07-24T12:35:22;22.70;99.90
9223;DHT22;7557;51.698;3.942;2023-07-24T12:37:49;22.90;99.90
9223;DHT22;7557;51.698;3.942;2023-07-24T12:40:17;23.00;99.90
9223;DHT22;7557;51.698;3.942;2023-07-24T12:42:44;23.10;99.90
9223;DHT22;7557;51.698;3.942;2023-07-24T12:45:11;23.20;99.90
9223;DHT22;7557;51.698;3.942;2023-07-24T12:47:40;23.30;99.90
9223;DHT22;7557;51.698;3.942;2023-07-24T12:50:08;23.40;99.90
9223;DHT22;7557;51.698;3.942;2023-07-24T12:52:36;23.60;99.90
9223;DHT22;7557;51.698;3.942;2023-07-24T12:55:04;24.00;99.90
9223;DHT22;7557;51.698;3.942;2023-07-24T12:57:32;24.20;99.90
9223;DHT22;7557;51.698;3.942;2023-07-24T12:59:59;24.10;99.90
9223;DHT22;7557;51.698;3.942;2023-07-24T13:02:27;24.00;99.90
9223;DHT22;7557;51.698;3.942;2023-07-24T13:04:56;23.90;99.90
9223;DHT22;7557;51.698;3.942;2023-07-24T13:07:23;23.70;99.90
9223;DHT22;7557;51.698;3.942;2023-07-24T13:09:50;23.30;99.90
9223;DHT22;7557;51.698;3.942;2023-07-24T13:12:18;22.90;99.90
9223;DHT22;7557;51.698;3.942;2023-07-24T13:14:45;22.50;99.90
9223;DHT22;7557;51.698;3.942;2023-07-24T13:17:12;22.20;99.90
9223;DHT22;7557;51.698;3.942;2023-07-24T13:19:40;22.00;99.90
9223;DHT22;7557;51.698;3.942;2023-07-24T13:22:09;21.90;99.90
9223;DHT22;7557;51.698;3.942;2023-07-24T13:24:36;21.50;99.90
9223;DHT22;7557;51.698;3.942;2023-07-24T13:27:04;21.10;99.90
9223;DHT22;7557;51.698;3.942;2023-07-24T13:29:31;20.70;99.90
9223;DHT22;7557;51.698;3.942;2023-07-24T13:31:58;20.40;99.90
9223;DHT22;7557;51.698;3.942;2023-07-24T13:34:26;20.20;99.90
9223;DHT22;7557;51.698;3.942;2023-07-24T13:36:54;20.10;99.90
9223;DHT22;7557;51.698;3.942;2023-07-24T13:39:23;19.90;99.90
9223;DHT22;7557;51.698;3.942;2023-07-24T13:41:51;19.70;99.90
9223;DHT22;7557;51.698;3.942;2023-07-24T13:44:18;19.40;99.90
9223;DHT22;7557;51.698;3.942;2023-07-24T13:46:46;19.20;99.90
9223;DHT22;7557;51.698;3.942;2023-07-24T13:49:13;18.90;99.90
9223;DHT22;7557;51.698;3.942;2023-07-24T13:51:41;18.80;99.90
9223;DHT22;7557;51.698;3.942;2023-07-24T13:54:08;18.70;99.90
9223;DHT22;7557;51.698;3.942;2023-07-24T13:56:37;18.50;99.90
9223;DHT22;7557;51.698;3.942;2023-07-24T13:59:04;18.40;99.90
9223;DHT22;7557;51.698;3.942;2023-07-24T14:01:32;18.40;99.90
9223;DHT22;7557;51.698;3.942;2023-07-24T14:04:00;18.30;99.90
9223;DHT22;7557;51.698;3.942;2023-07-24T14:06:27;18.30;99.90
9223;DHT22;7557;51.698;3.942;2023-07-24T14:08:54;18.40;99.90
9223;DHT22;7557;51.698;3.942;2023-07-24T14:11:22;18.40;99.90
9223;DHT22;7557;51.698;3.942;2023-07-24T14:13:52;18.40;99.90
9223;DHT22;7557;51.698;3.942;2023-07-24T14:16:19;18.30;99.90
9223;DHT22;7557;51.698;3.942;2023-07-24T14:18:47;18.20;99.90
9223;DHT22;7557;51.698;3.942;2023-07-24T14:21:14;18.20;99.90
9223;DHT22;7557;51.698;3.942;2023-07-24T14:23:42;18.20;99.90
9223;DHT22;7557;51.698;3.942;2023-07-24T14:26:09;18.20;99.90
9223;DHT22;7557;51.698;3.942;2023-07-24T14:28:37;18.20;99.90
9223;DHT22;7557;51.698;3.942;2023-07-24T14:31:06;18.20;99.90
9223;DHT22;7557;51.698;3.942;2023-07-24T14:33:33;18.20;99.90
9223;DHT22;7557;51.698;3.942;2023-07-24T14:36:00;18.10;99.90
9223;DHT22;7557;51.698;3.942;2023-07-24T14:38:28;18.10;99.90
9223;DHT22;7557;51.698;3.942;2023-07-24T14:40:55;18.00;99.90
9223;DHT22;7557;51.698;3.942;2023-07-24T14:43:22;18.00;99.90
9223;DHT22;7557;51.698;3.942;2023-07-24T14:45:50;18.10;99.90
9223;DHT22;7557;51.698;3.942;2023-07-24T14:48:19;18.10;99.90
9223;DHT22;7557;51.698;3.942;2023-07-24T14:50:46;18.20;99.90
9223;DHT22;7557;51.698;3.942;2023-07-24T14:53:14;18.20;99.90
9223;DHT22;7557;51.698;3.942;2023-07-24T14:55:41;18.30;99.90
9223;DHT22;7557;51.698;3.942;2023-07-24T14:58:09;18.30;99.90
9223;DHT22;7557;51.698;3.942;2023-07-24T15:00:36;18.40;99.90
9223;DHT22;7557;51.698;3.942;2023-07-24T15:03:04;18.30;99.90
9223;DHT22;7557;51.698;3.942;2023-07-24T15:05:33;18.20;99.90
9223;DHT22;7557;51.698;3.942;2023-07-24T15:08:00;18.20;99.90
9223;DHT22;7557;51.698;3.942;2023-07-24T15:10:28;18.10;99.90
9223;DHT22;7557;51.698;3.942;2023-07-24T15:12:55;18.10;99.90
9223;DHT22;7557;51.698;3.942;2023-07-24T15:15:22;18.10;99.90
9223;DHT22;7557;51.698;3.942;2023-07-24T15:17:50;18.10;99.90
9223;DHT22;7557;51.698;3.942;2023-07-24T15:20:17;18.20;99.90
9223;DHT22;7557;51.698;3.942;2023-07-24T15:22:47;18.20;99.90
9223;DHT22;7557;51.698;3.942;2023-07-24T15:25:14;18.30;99.90
9223;DHT22;7557;51.698;3.942;2023-07-24T15:27:41;18.40;99.90
9223;DHT22;7557;51.698;3.942;2023-07-24T15:30:09;18.50;99.90
9223;DHT22;7557;51.698;3.942;2023-07-24T15:32:36;18.50;99.90
9223;DHT22;7557;51.698;3.942;2023-07-24T15:35:05;18.60;99.90
9223;DHT22;7557;51.698;3.942;2023-07-24T15:37:34;18.60;99.90
9223;DHT22;7557;51.698;3.942;2023-07-24T15:40:04;18.70;99.90
9223;DHT22;7557;51.698;3.942;2023-07-24T15:42:31;18.60;99.90
9223;DHT22;7557;51.698;3.942;2023-07-24T15:44:59;18.60;99.90
9223;DHT22;7557;51.698;3.942;2023-07-24T15:47:26;18.50;99.90
9223;DHT22;7557;51.698;3.942;2023-07-24T15:49:53;18.40;99.90
9223;DHT22;7557;51.698;3.942;2023-07-24T15:52:21;18.40;99.90
9223;DHT22;7557;51.698;3.942;2023-07-24T15:54:48;18.50;99.90
9223;DHT22;7557;51.698;3.942;2023-07-24T15:57:17;18.60;99.90
9223;DHT22;7557;51.698;3.942;2023-07-24T15:59:44;18.70;99.90
9223;DHT22;7557;51.698;3.942;2023-07-24T16:02:12;18.60;99.90
9223;DHT22;7557;51.698;3.942;2023-07-24T16:04:40;18.70;99.90
9223;DHT22;7557;51.698;3.942;2023-07-24T16:07:07;18.70;99.90
9223;DHT22;7557;51.698;3.942;2023-07-24T16:09:34;18.60;99.90
9223;DHT22;7557;51.698;3.942;2023-07-24T16:12:02;18.50;99.90